Time;durP1;ratioP1;P1;durP2;ratioP2;P2;SDS_P1;SDS_P2;PMS_P1;PMS_P2;Temp;Humidity;BMP_temperature;BMP_pressure;BME280_temperature;BME280_humidity;BME280_pressure;Samples;Min_cycle;Max_cycle;Signal;HPM_P1;HPM_P2
2023/03/05 00:02:17;;;;;;;29.97;16.80;;;9.30;55.30;;;;;;5032265;28;20461;-73
2023/03/05 00:04:44;;;;;;;30.53;16.50;;;9.40;55.10;;;;;;5032003;28;20500;-72
2023/03/05 00:07:13;;;;;;;27.60;15.53;;;9.50;55.10;;;;;;5031799;28;20512;-72
2023/03/05 00:09:42;;;;;;;30.10;16.23;;;9.40;55.10;;;;;;5033087;28;20453;-71
2023/03/05 00:12:09;;;;;;;29.70;15.27;;;9.30;55.00;;;;;;5032273;28;20860;-72
2023/03/05 00:14:39;;;;;;;29.87;15.73;;;9.30;55.30;;;;;;5031900;28;20567;-73
2023/03/05 00:17:06;;;;;;;27.40;15.53;;;9.20;55.20;;;;;;5032314;28;20481;-73
2023/03/05 00:19:33;;;;;;;28.30;16.30;;;9.30;55.20;;;;;;5031626;28;20497;-73
2023/03/05 00:22:02;;;;;;;28.00;15.23;;;9.30;55.10;;;;;;5031834;28;20449;-73
2023/03/05 00:24:33;;;;;;;30.43;15.97;;;9.50;55.10;;;;;;5032390;28;20485;-73
2023/03/05 00:27:03;;;;;;;31.90;15.27;;;9.40;54.80;;;;;;5032015;28;20516;-72
2023/03/05 00:29:30;;;;;;;30.23;16.13;;;9.30;54.70;;;;;;5031970;28;20469;-73
2023/03/05 00:31:58;;;;;;;28.63;15.33;;;9.30;54.90;;;;;;5031705;28;20553;-72
2023/03/05 00:34:28;;;;;;;28.90;15.37;;;9.30;54.80;;;;;;5032275;28;20477;-73
2023/03/05 00:36:55;;;;;;;29.00;16.27;;;9.30;54.70;;;;;;5031459;28;20496;-73
2023/03/05 00:39:22;;;;;;;31.93;15.37;;;9.30;54.70;;;;;;5031801;28;20433;-73
2023/03/05 00:41:53;;;;;;;28.97;15.37;;;9.30;54.60;;;;;;5031498;28;20445;-73
2023/03/05 00:44:23;;;;;;;29.03;15.37;;;9.20;54.50;;;;;;5029794;28;20483;-73
2023/03/05 00:46:53;;;;;;;28.10;15.37;;;9.20;54.80;;;;;;5031402;28;20460;-73
2023/03/05 00:49:23;;;;;;;29.90;16.53;;;9.10;54.60;;;;;;5030889;28;20511;-73
2023/03/05 00:51:51;;;;;;;31.63;15.63;;;9.10;54.70;;;;;;5031650;28;20485;-73
2023/03/05 00:54:18;;;;;;;31.43;15.63;;;9.10;54.70;;;;;;5031665;28;20452;-73
2023/03/05 00:56:46;;;;;;;31.43;15.77;;;9.10;54.60;;;;;;5031438;28;20552;-73
2023/03/05 00:59:14;;;;;;;25.40;14.93;;;9.10;54.50;;;;;;5030597;28;20534;-73
2023/03/05 01:01:41;;;;;;;28.60;14.53;;;9.00;54.50;;;;;;5041659;28;20505;-73
2023/03/05 01:04:09;;;;;;;29.20;15.20;;;9.00;54.50;;;;;;5031146;28;20453;-72
2023/03/05 01:06:41;;;;;;;27.63;16.23;;;9.00;54.70;;;;;;5031034;28;20559;-72
2023/03/05 01:09:08;;;;;;;30.10;15.73;;;9.00;54.60;;;;;;5030453;28;20456;-72
2023/03/05 01:11:38;;;;;;;30.37;16.40;;;9.10;54.50;;;;;;5033572;28;20589;-72
2023/03/05 01:14:08;;;;;;;29.13;16.17;;;9.10;54.70;;;;;;5011195;28;20872;-72
2023/03/05 01:16:36;;;;;;;30.87;15.93;;;9.00;54.70;;;;;;5031115;28;20493;-72
2023/03/05 01:19:03;;;;;;;26.57;15.33;;;9.00;54.70;;;;;;5030811;28;20532;-72
2023/03/05 01:21:30;;;;;;;25.63;14.57;;;9.00;54.70;;;;;;5030695;28;20449;-73
2023/03/05 01:23:57;;;;;;;30.77;14.77;;;9.00;54.60;;;;;;5031340;28;20599;-72
2023/03/05 01:26:24;;;;;;;34.00;16.00;;;9.00;54.70;;;;;;5030578;28;20917;-73
2023/03/05 01:28:51;;;;;;;30.70;15.03;;;9.10;54.70;;;;;;5030423;28;20480;-73
2023/03/05 01:31:18;;;;;;;27.13;14.67;;;9.10;54.50;;;;;;5030422;28;20576;-73
2023/03/05 01:33:46;;;;;;;29.27;15.07;;;9.10;54.50;;;;;;5028892;28;20540;-73
2023/03/05 01:36:15;;;;;;;29.67;15.93;;;9.10;54.30;;;;;;5030406;28;20694;-74
2023/03/05 01:38:43;;;;;;;32.70;15.30;;;9.10;54.60;;;;;;5031098;28;20499;-73
2023/03/05 01:41:10;;;;;;;28.20;15.40;;;9.10;54.50;;;;;;5030420;28;20974;-73
2023/03/05 01:43:38;;;;;;;25.97;14.97;;;9.10;54.80;;;;;;5030446;28;20453;-73
2023/03/05 01:46:29;;;;;;;28.87;14.47;;;9.10;54.50;;;;;;5030211;28;21070;-73
2023/03/05 01:49:04;;;;;;;24.70;14.23;;;9.20;54.60;;;;;;5030232;28;20468;-73
2023/03/05 01:51:36;;;;;;;26.63;14.03;;;9.20;54.40;;;;;;5030564;28;20849;-73
2023/03/05 01:54:07;;;;;;;29.23;14.00;;;9.20;54.20;;;;;;5030701;28;20477;-72
2023/03/05 01:56:35;;;;;;;28.20;14.70;;;9.20;54.30;;;;;;5030651;28;20727;-73
2023/03/05 01:59:12;;;;;;;26.93;15.53;;;9.20;54.20;;;;;;5030097;28;20481;-73
2023/03/05 02:01:43;;;;;;;24.97;13.20;;;9.20;54.20;;;;;;5030391;28;20453;-72
2023/03/05 02:04:15;;;;;;;25.63;14.03;;;9.20;54.20;;;;;;5029795;28;20437;-72
2023/03/05 02:06:43;;;;;;;25.47;14.50;;;9.10;54.20;;;;;;5029738;28;20481;-73
2023/03/05 02:09:11;;;;;;;33.67;14.93;;;9.10;54.40;;;;;;5027560;28;20453;-72
2023/03/05 02:11:38;;;;;;;25.67;14.10;;;9.10;54.50;;;;;;5030530;28;20564;-73
2023/03/05 02:14:06;;;;;;;28.23;15.57;;;9.10;54.40;;;;;;5030243;28;20487;-72
2023/03/05 02:16:36;;;;;;;27.03;14.17;;;9.00;54.50;;;;;;5030834;28;20873;-72
2023/03/05 02:19:05;;;;;;;30.63;15.63;;;9.00;54.60;;;;;;5030528;28;20445;-72
2023/03/05 02:21:39;;;;;;;26.43;15.20;;;8.90;54.70;;;;;;5030412;28;20862;-72
2023/03/05 02:24:07;;;;;;;26.67;15.33;;;9.00;55.00;;;;;;5029773;28;20459;-73
2023/03/05 02:26:33;;;;;;;31.87;15.87;;;8.90;54.90;;;;;;5029745;28;20801;-72
2023/03/05 02:29:05;;;;;;;28.87;15.20;;;8.90;55.00;;;;;;5029280;28;20520;-74
2023/03/05 02:31:32;;;;;;;31.00;15.10;;;8.90;55.00;;;;;;5030053;28;20499;-72
2023/03/05 02:33:59;;;;;;;31.83;15.77;;;8.80;55.10;;;;;;5029343;28;20503;-73
2023/03/05 02:36:26;;;;;;;26.67;15.13;;;8.70;55.30;;;;;;5031320;28;20477;-73
2023/03/05 02:38:55;;;;;;;29.43;14.97;;;8.60;55.20;;;;;;5029912;28;20527;-72
2023/03/05 02:41:24;;;;;;;30.10;15.27;;;8.70;55.60;;;;;;5030028;28;20533;-72
2023/03/05 02:43:50;;;;;;;25.93;14.80;;;8.70;55.50;;;;;;5029315;28;20458;-72
2023/03/05 02:46:18;;;;;;;31.03;15.63;;;8.70;55.40;;;;;;5029226;28;20473;-73
2023/03/05 02:48:45;;;;;;;26.13;14.40;;;8.70;55.30;;;;;;5024834;28;20465;-73
2023/03/05 02:51:13;;;;;;;31.57;15.60;;;8.80;55.30;;;;;;5029782;28;20538;-73
2023/03/05 02:53:40;;;;;;;29.63;15.77;;;8.80;55.40;;;;;;5029631;28;20483;-73
2023/03/05 02:56:08;;;;;;;31.20;15.57;;;8.90;55.30;;;;;;5030057;28;20473;-73
2023/03/05 02:58:35;;;;;;;30.47;14.53;;;8.90;55.10;;;;;;5030804;28;20581;-73
2023/03/05 03:01:02;;;;;;;25.67;14.20;;;9.00;55.00;;;;;;5030796;28;20473;-73
2023/03/05 03:03:32;;;;;;;28.30;15.00;;;9.00;55.00;;;;;;5030426;28;20459;-74
2023/03/05 03:05:59;;;;;;;27.27;15.20;;;8.90;55.00;;;;;;5030657;28;20471;-73
2023/03/05 03:08:29;;;;;;;31.30;15.07;;;8.90;55.00;;;;;;5017275;28;21074;-73
2023/03/05 03:11:06;;;;;;;28.00;15.27;;;8.90;55.10;;;;;;5030128;28;20485;-73
2023/03/05 03:13:37;;;;;;;30.43;14.57;;;8.70;55.40;;;;;;5030702;28;20532;-73
